THY6TR LOWW-LTFM
Flight info
| Callsign | THY6TR |
|---|---|
| Flight time | 1h 45m |
| Altitude | 37000 |
| Route | ADAMA DCT VEDER DCT ALAMU DCT EPARI DCT BUDOP DCT AGMEL DCT NOPTI DCT TIMUR L606 GASRU T390 RILEX |
| Aircraft | B38M/M-SDE1FGHILORVWXY/HB1 |
Departure
| Time | 2026-04-25 19:00 |
|---|---|
| Airport | Vienna International Airport (LOWW) |
Arrival
| Time | 2026-04-25 20:45 |
|---|---|
| Airport | İstanbul Airport (LTFM) |
| Time | Latitude | Longitude | Altitude | Speed | Heading |
|---|---|---|---|---|---|
| 2026-04-25 18:29 | 48.12019 | 16.55605 | 612 ft | 0 kts | 116° |
| 2026-04-25 18:46 | 48.12028 | 16.55579 | 612 ft | 4 kts | 122° |
| 2026-04-25 18:46 | 48.12045 | 16.55550 | 615 ft | 4 kts | 150° |
| 2026-04-25 18:46 | 48.12065 | 16.55545 | 612 ft | 2 kts | 205° |
| 2026-04-25 18:47 | 48.12066 | 16.55546 | 612 ft | 1 kts | 205° |
| 2026-04-25 18:51 | 48.12065 | 16.55545 | 612 ft | 1 kts | 205° |
| 2026-04-25 18:52 | 48.12045 | 16.55531 | 612 ft | 7 kts | 205° |
| 2026-04-25 18:52 | 48.11978 | 16.55484 | 612 ft | 15 kts | 205° |
| 2026-04-25 18:52 | 48.11897 | 16.55439 | 619 ft | 10 kts | 191° |
| 2026-04-25 18:52 | 48.11829 | 16.55434 | 612 ft | 11 kts | 159° |
| 2026-04-25 18:53 | 48.11778 | 16.55526 | 618 ft | 13 kts | 115° |
| 2026-04-25 18:53 | 48.11737 | 16.55652 | 625 ft | 15 kts | 116° |
| 2026-04-25 18:53 | 48.11690 | 16.55798 | 619 ft | 17 kts | 115° |
| 2026-04-25 18:53 | 48.11637 | 16.55961 | 613 ft | 17 kts | 116° |
| 2026-04-25 18:54 | 48.11533 | 16.56286 | 614 ft | 17 kts | 115° |
| 2026-04-25 18:54 | 48.11476 | 16.56456 | 616 ft | 19 kts | 117° |
| 2026-04-25 18:54 | 48.11419 | 16.56631 | 619 ft | 17 kts | 116° |
| 2026-04-25 18:55 | 48.11363 | 16.56804 | 615 ft | 19 kts | 116° |
| 2026-04-25 18:55 | 48.11302 | 16.56989 | 624 ft | 20 kts | 116° |
| 2026-04-25 18:55 | 48.11239 | 16.57181 | 619 ft | 19 kts | 115° |
| 2026-04-25 18:55 | 48.11179 | 16.57366 | 623 ft | 21 kts | 116° |
| 2026-04-25 18:56 | 48.11116 | 16.57563 | 625 ft | 22 kts | 116° |
| 2026-04-25 18:56 | 48.11079 | 16.57676 | 612 ft | 0 kts | 117° |
| 2026-04-25 18:56 | 48.11077 | 16.57677 | 623 ft | 1 kts | 139° |
| 2026-04-25 18:56 | 48.11058 | 16.57672 | 612 ft | 5 kts | 206° |
| 2026-04-25 18:57 | 48.11023 | 16.57633 | 612 ft | 2 kts | 208° |
| 2026-04-25 18:58 | 48.11020 | 16.57631 | 612 ft | 2 kts | 208° |
| 2026-04-25 18:58 | 48.10957 | 16.57583 | 617 ft | 14 kts | 207° |
| 2026-04-25 18:59 | 48.10942 | 16.57448 | 616 ft | 0 kts | 297° |
| 2026-04-25 18:59 | 48.11145 | 16.56825 | 619 ft | 94 kts | 296° |
| 2026-04-25 19:00 | 48.11837 | 16.54700 | 752 ft | 165 kts | 297° |
| 2026-04-25 19:00 | 48.12392 | 16.53177 | 1411 ft | 167 kts | 299° |
| 2026-04-25 19:01 | 48.12528 | 16.50026 | 2899 ft | 163 kts | 234° |
| 2026-04-25 19:01 | 48.11632 | 16.48933 | 3580 ft | 173 kts | 217° |
| 2026-04-25 19:01 | 48.10474 | 16.48279 | 4212 ft | 182 kts | 201° |
| 2026-04-25 19:01 | 48.09212 | 16.47771 | 4709 ft | 196 kts | 201° |
| 2026-04-25 19:02 | 48.06139 | 16.47499 | 5422 ft | 252 kts | 176° |
| 2026-04-25 19:02 | 48.04321 | 16.47842 | 5897 ft | 272 kts | 176° |
| 2026-04-25 19:02 | 48.02383 | 16.48275 | 6438 ft | 290 kts | 167° |
| 2026-04-25 19:03 | 47.99921 | 16.51550 | 7825 ft | 300 kts | 111° |
| 2026-04-25 19:03 | 47.99739 | 16.55638 | 8866 ft | 299 kts | 77° |
| 2026-04-25 19:03 | 47.99905 | 16.58774 | 9596 ft | 308 kts | 92° |
| 2026-04-25 19:04 | 47.99693 | 16.65348 | 10750 ft | 333 kts | 90° |
| 2026-04-25 19:04 | 47.99620 | 16.68880 | 11253 ft | 346 kts | 90° |
| 2026-04-25 19:05 | 47.99508 | 16.76167 | 12754 ft | 356 kts | 89° |
| 2026-04-25 19:05 | 47.99422 | 16.83587 | 14281 ft | 364 kts | 89° |
| 2026-04-25 19:05 | 47.99379 | 16.87437 | 15012 ft | 369 kts | 89° |
| 2026-04-25 19:06 | 47.99335 | 16.91291 | 15755 ft | 374 kts | 89° |
| 2026-04-25 19:06 | 47.99244 | 16.99106 | 17153 ft | 383 kts | 89° |
| 2026-04-25 19:06 | 47.99196 | 17.03113 | 17804 ft | 388 kts | 90° |
| 2026-04-25 19:07 | 47.99093 | 17.11263 | 19070 ft | 397 kts | 90° |
| 2026-04-25 19:07 | 47.99039 | 17.15420 | 19674 ft | 401 kts | 90° |
| 2026-04-25 19:08 | 47.98925 | 17.23830 | 20832 ft | 409 kts | 90° |
| 2026-04-25 19:08 | 47.98865 | 17.28102 | 21388 ft | 413 kts | 90° |
| 2026-04-25 19:09 | 47.97283 | 17.40835 | 22918 ft | 426 kts | 108° |
| 2026-04-25 19:09 | 47.96686 | 17.43642 | 23210 ft | 429 kts | 108° |
| 2026-04-25 19:09 | 47.94506 | 17.53651 | 24355 ft | 437 kts | 109° |
| 2026-04-25 19:10 | 47.93566 | 17.57926 | 24792 ft | 441 kts | 109° |
| 2026-04-25 19:10 | 47.92606 | 17.62281 | 25248 ft | 444 kts | 109° |
| 2026-04-25 19:10 | 47.91635 | 17.66674 | 25670 ft | 448 kts | 109° |
| 2026-04-25 19:10 | 47.90654 | 17.71102 | 26106 ft | 451 kts | 109° |
| 2026-04-25 19:11 | 47.89664 | 17.75560 | 26521 ft | 454 kts | 109° |
| 2026-04-25 19:11 | 47.88666 | 17.80049 | 26927 ft | 457 kts | 109° |
| 2026-04-25 19:11 | 47.87659 | 17.84564 | 27329 ft | 460 kts | 109° |
| 2026-04-25 19:11 | 47.86644 | 17.89107 | 27702 ft | 464 kts | 109° |
| 2026-04-25 19:12 | 47.85621 | 17.93679 | 28085 ft | 466 kts | 109° |
| 2026-04-25 19:12 | 47.84545 | 17.98248 | 28446 ft | 468 kts | 115° |
| 2026-04-25 19:12 | 47.83195 | 18.02657 | 28809 ft | 470 kts | 116° |
| 2026-04-25 19:12 | 47.81821 | 18.07093 | 29145 ft | 473 kts | 117° |
| 2026-04-25 19:13 | 47.80432 | 18.11542 | 29513 ft | 475 kts | 117° |
| 2026-04-25 19:13 | 47.79034 | 18.16012 | 29825 ft | 478 kts | 117° |
| 2026-04-25 19:13 | 47.77644 | 18.20446 | 30150 ft | 480 kts | 117° |
| 2026-04-25 19:13 | 47.76227 | 18.24959 | 30490 ft | 482 kts | 117° |
| 2026-04-25 19:14 | 47.74803 | 18.29488 | 30817 ft | 485 kts | 116° |
| 2026-04-25 19:14 | 47.73972 | 18.32641 | 30993 ft | 488 kts | 106° |
| 2026-04-25 19:14 | 47.73282 | 18.39248 | 31431 ft | 491 kts | 97° |
| 2026-04-25 19:14 | 47.72864 | 18.44292 | 31662 ft | 495 kts | 96° |
| 2026-04-25 19:15 | 47.72457 | 18.49391 | 31990 ft | 497 kts | 96° |
| 2026-04-25 19:15 | 47.72061 | 18.54495 | 32283 ft | 498 kts | 96° |
| 2026-04-25 19:15 | 47.71665 | 18.59609 | 32551 ft | 500 kts | 96° |
| 2026-04-25 19:15 | 47.71264 | 18.64760 | 32808 ft | 503 kts | 96° |
| 2026-04-25 19:16 | 47.70859 | 18.69934 | 33094 ft | 505 kts | 96° |
| 2026-04-25 19:16 | 47.70451 | 18.75129 | 33349 ft | 507 kts | 96° |
| 2026-04-25 19:16 | 47.70038 | 18.80344 | 33628 ft | 509 kts | 96° |
| 2026-04-25 19:16 | 47.69622 | 18.85580 | 33913 ft | 511 kts | 96° |
| 2026-04-25 19:17 | 47.69202 | 18.90822 | 34233 ft | 511 kts | 96° |
| 2026-04-25 19:17 | 47.68637 | 18.96027 | 34584 ft | 510 kts | 107° |
| 2026-04-25 19:17 | 47.67336 | 19.00811 | 34997 ft | 505 kts | 120° |
| 2026-04-25 19:17 | 47.65672 | 19.05392 | 35287 ft | 505 kts | 120° |
| 2026-04-25 19:18 | 47.63995 | 19.09956 | 35600 ft | 504 kts | 121° |
| 2026-04-25 19:18 | 47.62293 | 19.14500 | 35921 ft | 503 kts | 121° |
| 2026-04-25 19:18 | 47.60580 | 19.19019 | 36231 ft | 502 kts | 121° |
| 2026-04-25 19:18 | 47.58860 | 19.23527 | 36509 ft | 502 kts | 121° |
| 2026-04-25 19:19 | 47.57139 | 19.28026 | 36792 ft | 501 kts | 121° |
| 2026-04-25 19:19 | 47.55415 | 19.32530 | 36984 ft | 501 kts | 121° |
| 2026-04-25 19:19 | 47.53706 | 19.36984 | 36983 ft | 493 kts | 121° |
| 2026-04-25 19:20 | 47.50324 | 19.45777 | 36958 ft | 491 kts | 121° |
| 2026-04-25 19:20 | 47.46944 | 19.54538 | 36964 ft | 491 kts | 121° |
| 2026-04-25 19:21 | 47.43570 | 19.63253 | 36964 ft | 491 kts | 122° |
| 2026-04-25 19:21 | 47.38466 | 19.76385 | 36964 ft | 491 kts | 122° |
| 2026-04-25 19:22 | 47.35054 | 19.85129 | 36953 ft | 491 kts | 122° |
| 2026-04-25 19:23 | 47.29944 | 19.98170 | 36952 ft | 491 kts | 122° |
| 2026-04-25 19:23 | 47.24800 | 20.11235 | 36944 ft | 492 kts | 122° |
| 2026-04-25 19:24 | 47.21361 | 20.19933 | 36943 ft | 491 kts | 122° |
| 2026-04-25 19:25 | 47.14473 | 20.37275 | 36945 ft | 491 kts | 122° |
| 2026-04-25 19:25 | 47.11022 | 20.45922 | 36943 ft | 491 kts | 122° |
| 2026-04-25 19:26 | 47.07560 | 20.54567 | 36944 ft | 490 kts | 122° |
| 2026-04-25 19:26 | 47.04099 | 20.63185 | 36943 ft | 490 kts | 122° |
| 2026-04-25 19:27 | 47.01219 | 20.70334 | 36944 ft | 490 kts | 122° |
| 2026-04-25 19:27 | 46.97157 | 20.80385 | 36942 ft | 490 kts | 122° |
| 2026-04-25 19:28 | 46.93676 | 20.88970 | 36944 ft | 490 kts | 122° |
| 2026-04-25 19:28 | 46.90211 | 20.97490 | 36947 ft | 490 kts | 122° |
| 2026-04-25 19:29 | 46.86715 | 21.06057 | 36945 ft | 490 kts | 122° |
| 2026-04-25 19:29 | 46.83213 | 21.14612 | 36952 ft | 490 kts | 122° |
| 2026-04-25 19:30 | 46.80301 | 21.21707 | 36952 ft | 491 kts | 122° |
| 2026-04-25 19:30 | 46.76196 | 21.31683 | 36952 ft | 490 kts | 122° |
| 2026-04-25 19:31 | 46.72676 | 21.40212 | 36951 ft | 489 kts | 122° |
| 2026-04-25 19:31 | 46.69659 | 21.48988 | 36931 ft | 487 kts | 103° |
| 2026-04-25 19:32 | 46.67302 | 21.58245 | 36895 ft | 484 kts | 129° |
| 2026-04-25 19:32 | 46.65005 | 21.61668 | 36970 ft | 479 kts | 145° |
| 2026-04-25 19:32 | 46.64108 | 21.62674 | 36972 ft | 480 kts | 146° |
| 2026-04-25 19:33 | 46.57091 | 21.70748 | 36956 ft | 483 kts | 144° |
| 2026-04-25 19:33 | 46.51798 | 21.76763 | 36955 ft | 482 kts | 145° |
| 2026-04-25 19:34 | 46.46513 | 21.82750 | 36951 ft | 482 kts | 144° |
| 2026-04-25 19:34 | 46.41214 | 21.88735 | 36953 ft | 482 kts | 145° |
| 2026-04-25 19:35 | 46.35914 | 21.94708 | 36955 ft | 482 kts | 144° |
| 2026-04-25 19:35 | 46.30547 | 22.00485 | 36948 ft | 479 kts | 151° |
| 2026-04-25 19:36 | 46.24894 | 22.05611 | 36946 ft | 479 kts | 151° |
| 2026-04-25 19:36 | 46.19271 | 22.10665 | 36952 ft | 480 kts | 151° |
| 2026-04-25 19:37 | 46.13600 | 22.15747 | 36958 ft | 480 kts | 151° |
| 2026-04-25 19:37 | 46.07932 | 22.20813 | 36960 ft | 480 kts | 151° |
| 2026-04-25 19:38 | 46.02260 | 22.25871 | 36961 ft | 479 kts | 151° |
| 2026-04-25 19:38 | 45.96582 | 22.30922 | 36964 ft | 479 kts | 151° |
| 2026-04-25 19:39 | 45.90904 | 22.35960 | 36963 ft | 479 kts | 151° |
| 2026-04-25 19:39 | 45.85225 | 22.40986 | 36964 ft | 479 kts | 151° |
| 2026-04-25 19:40 | 45.79553 | 22.45995 | 36960 ft | 478 kts | 151° |
| 2026-04-25 19:40 | 45.73883 | 22.50990 | 36962 ft | 479 kts | 151° |
| 2026-04-25 19:41 | 45.68203 | 22.55982 | 36975 ft | 479 kts | 151° |
| 2026-04-25 19:41 | 45.64453 | 22.59271 | 36966 ft | 478 kts | 151° |
| 2026-04-25 19:42 | 45.56896 | 22.65882 | 36965 ft | 478 kts | 151° |
| 2026-04-25 19:42 | 45.51188 | 22.70863 | 36972 ft | 478 kts | 151° |
| 2026-04-25 19:43 | 45.45536 | 22.75781 | 36974 ft | 478 kts | 151° |
| 2026-04-25 19:43 | 45.39865 | 22.80706 | 36979 ft | 478 kts | 151° |
| 2026-04-25 19:44 | 45.34188 | 22.85625 | 36967 ft | 477 kts | 151° |
| 2026-04-25 19:44 | 45.28516 | 22.90526 | 36976 ft | 478 kts | 151° |
| 2026-04-25 19:45 | 45.22834 | 22.95424 | 36975 ft | 477 kts | 151° |
| 2026-04-25 19:45 | 45.18119 | 22.99481 | 36968 ft | 477 kts | 151° |
| 2026-04-25 19:46 | 45.12438 | 23.04358 | 36976 ft | 477 kts | 151° |
| 2026-04-25 19:46 | 45.06758 | 23.09222 | 36981 ft | 477 kts | 151° |
| 2026-04-25 19:47 | 45.01068 | 23.14084 | 36975 ft | 477 kts | 151° |
| 2026-04-25 19:47 | 44.95387 | 23.18927 | 36974 ft | 477 kts | 150° |
| 2026-04-25 19:48 | 44.89709 | 23.23755 | 36971 ft | 476 kts | 150° |
| 2026-04-25 19:48 | 44.84067 | 23.28541 | 36975 ft | 476 kts | 150° |
| 2026-04-25 19:49 | 44.79307 | 23.32572 | 36969 ft | 476 kts | 150° |
| 2026-04-25 19:49 | 44.72694 | 23.38158 | 36972 ft | 476 kts | 150° |
| 2026-04-25 19:50 | 44.64165 | 23.45339 | 36968 ft | 476 kts | 150° |
| 2026-04-25 19:51 | 44.58473 | 23.50118 | 36971 ft | 476 kts | 150° |
| 2026-04-25 19:51 | 44.52778 | 23.54889 | 36972 ft | 476 kts | 150° |
| 2026-04-25 19:52 | 44.47095 | 23.59639 | 36970 ft | 476 kts | 150° |
| 2026-04-25 19:52 | 44.41409 | 23.64380 | 36973 ft | 476 kts | 150° |
| 2026-04-25 19:53 | 44.35722 | 23.69112 | 36970 ft | 475 kts | 150° |
| 2026-04-25 19:53 | 44.30040 | 23.73828 | 36964 ft | 475 kts | 150° |
| 2026-04-25 19:54 | 44.24349 | 23.78541 | 36961 ft | 475 kts | 150° |
| 2026-04-25 19:54 | 44.18700 | 23.83208 | 36962 ft | 475 kts | 150° |
| 2026-04-25 19:55 | 44.13008 | 23.87901 | 36967 ft | 475 kts | 150° |
| 2026-04-25 19:55 | 44.07309 | 23.92588 | 36970 ft | 475 kts | 150° |
| 2026-04-25 19:56 | 44.01609 | 23.97266 | 36971 ft | 475 kts | 150° |
| 2026-04-25 19:56 | 43.95902 | 24.01940 | 36970 ft | 475 kts | 150° |
| 2026-04-25 19:57 | 43.90205 | 24.06595 | 36969 ft | 475 kts | 150° |
| 2026-04-25 19:57 | 43.84500 | 24.11249 | 36970 ft | 475 kts | 150° |
| 2026-04-25 19:58 | 43.78794 | 24.15892 | 36975 ft | 475 kts | 150° |
| 2026-04-25 19:58 | 43.73102 | 24.20514 | 36977 ft | 475 kts | 150° |
| 2026-04-25 19:59 | 43.67701 | 24.25585 | 36963 ft | 471 kts | 132° |
| 2026-04-25 19:59 | 43.63057 | 24.31997 | 36984 ft | 473 kts | 135° |
| 2026-04-25 20:00 | 43.58309 | 24.38287 | 36978 ft | 473 kts | 135° |
| 2026-04-25 20:00 | 43.53564 | 24.44565 | 36978 ft | 472 kts | 135° |
| 2026-04-25 20:01 | 43.46459 | 24.53939 | 36990 ft | 470 kts | 135° |
| 2026-04-25 20:01 | 43.41737 | 24.60154 | 36992 ft | 470 kts | 135° |
| 2026-04-25 20:02 | 43.37011 | 24.66357 | 36991 ft | 469 kts | 135° |
| 2026-04-25 20:02 | 43.32290 | 24.72540 | 37013 ft | 468 kts | 135° |
| 2026-04-25 20:03 | 43.27567 | 24.78711 | 36988 ft | 468 kts | 135° |
| 2026-04-25 20:03 | 43.22862 | 24.84847 | 36990 ft | 467 kts | 135° |
| 2026-04-25 20:04 | 43.18183 | 24.90934 | 36997 ft | 467 kts | 135° |
| 2026-04-25 20:04 | 43.13470 | 24.97054 | 36999 ft | 466 kts | 135° |
| 2026-04-25 20:05 | 43.08778 | 25.03167 | 36997 ft | 465 kts | 135° |
| 2026-04-25 20:05 | 43.04081 | 25.09274 | 36996 ft | 465 kts | 135° |
| 2026-04-25 20:06 | 42.99384 | 25.15365 | 37012 ft | 465 kts | 135° |
| 2026-04-25 20:06 | 42.94692 | 25.21437 | 37006 ft | 464 kts | 135° |
| 2026-04-25 20:07 | 42.90009 | 25.27485 | 37007 ft | 463 kts | 135° |
| 2026-04-25 20:07 | 42.85316 | 25.33530 | 37009 ft | 463 kts | 135° |
| 2026-04-25 20:08 | 42.80669 | 25.39505 | 37007 ft | 462 kts | 135° |
| 2026-04-25 20:08 | 42.75997 | 25.45498 | 37014 ft | 461 kts | 135° |
| 2026-04-25 20:09 | 42.71329 | 25.51474 | 37008 ft | 460 kts | 135° |
| 2026-04-25 20:09 | 42.66658 | 25.57439 | 37000 ft | 459 kts | 135° |
| 2026-04-25 20:10 | 42.61994 | 25.63382 | 37008 ft | 459 kts | 135° |
| 2026-04-25 20:10 | 42.57337 | 25.69307 | 37018 ft | 458 kts | 135° |
| 2026-04-25 20:11 | 42.52680 | 25.75215 | 37004 ft | 458 kts | 135° |
| 2026-04-25 20:11 | 42.48067 | 25.81058 | 37008 ft | 457 kts | 135° |
| 2026-04-25 20:12 | 42.43427 | 25.86921 | 37010 ft | 456 kts | 135° |
| 2026-04-25 20:12 | 42.40321 | 25.90839 | 37006 ft | 455 kts | 135° |
| 2026-04-25 20:13 | 42.34153 | 25.98602 | 37007 ft | 454 kts | 135° |
| 2026-04-25 20:13 | 42.29529 | 26.04411 | 37008 ft | 454 kts | 135° |
| 2026-04-25 20:14 | 42.25077 | 26.10431 | 36985 ft | 450 kts | 122° |
| 2026-04-25 20:14 | 42.21935 | 26.17698 | 36989 ft | 450 kts | 118° |
| 2026-04-25 20:15 | 42.18837 | 26.25033 | 37010 ft | 450 kts | 117° |
| 2026-04-25 20:15 | 42.15758 | 26.32393 | 36770 ft | 449 kts | 117° |
| 2026-04-25 20:16 | 42.14255 | 26.35983 | 36504 ft | 441 kts | 117° |
| 2026-04-25 20:16 | 42.12759 | 26.39552 | 36176 ft | 434 kts | 117° |
| 2026-04-25 20:16 | 42.11282 | 26.43073 | 35706 ft | 431 kts | 117° |
| 2026-04-25 20:16 | 42.09808 | 26.46583 | 35166 ft | 430 kts | 117° |
| 2026-04-25 20:17 | 42.08339 | 26.50075 | 34652 ft | 429 kts | 117° |
| 2026-04-25 20:17 | 42.06872 | 26.53561 | 34145 ft | 427 kts | 116° |
| 2026-04-25 20:17 | 42.05409 | 26.57031 | 33650 ft | 425 kts | 116° |
| 2026-04-25 20:17 | 42.03954 | 26.60477 | 33157 ft | 423 kts | 117° |
| 2026-04-25 20:18 | 42.02503 | 26.63912 | 32660 ft | 421 kts | 117° |
| 2026-04-25 20:18 | 42.01057 | 26.67331 | 32166 ft | 419 kts | 117° |
| 2026-04-25 20:18 | 41.99615 | 26.70735 | 31667 ft | 418 kts | 117° |
| 2026-04-25 20:18 | 41.98180 | 26.74123 | 31196 ft | 416 kts | 117° |
| 2026-04-25 20:19 | 41.96722 | 26.77461 | 30788 ft | 412 kts | 119° |
| 2026-04-25 20:19 | 41.95240 | 26.80731 | 30435 ft | 406 kts | 119° |
| 2026-04-25 20:19 | 41.93787 | 26.83952 | 30151 ft | 399 kts | 119° |
| 2026-04-25 20:19 | 41.92350 | 26.87143 | 29808 ft | 399 kts | 119° |
| 2026-04-25 20:20 | 41.90919 | 26.90320 | 29388 ft | 397 kts | 119° |
| 2026-04-25 20:20 | 41.89489 | 26.93479 | 28969 ft | 395 kts | 120° |
| 2026-04-25 20:20 | 41.88062 | 26.96619 | 28514 ft | 392 kts | 120° |
| 2026-04-25 20:20 | 41.86646 | 26.99732 | 28149 ft | 389 kts | 120° |
| 2026-04-25 20:21 | 41.85246 | 27.02810 | 27769 ft | 386 kts | 120° |
| 2026-04-25 20:21 | 41.83848 | 27.05877 | 27390 ft | 383 kts | 120° |
| 2026-04-25 20:21 | 41.82465 | 27.08910 | 26999 ft | 380 kts | 120° |
| 2026-04-25 20:21 | 41.81060 | 27.11907 | 26611 ft | 378 kts | 123° |
| 2026-04-25 20:22 | 41.79563 | 27.14813 | 26203 ft | 390 kts | 123° |
| 2026-04-25 20:22 | 41.79043 | 27.15829 | 26067 ft | 394 kts | 123° |
| 2026-04-25 20:22 | 41.76071 | 27.20490 | 24869 ft | 395 kts | 131° |
| 2026-04-25 20:22 | 41.74244 | 27.23223 | 24121 ft | 391 kts | 131° |
| 2026-04-25 20:23 | 41.72448 | 27.25941 | 23382 ft | 388 kts | 130° |
| 2026-04-25 20:23 | 41.70676 | 27.28641 | 22648 ft | 384 kts | 130° |
| 2026-04-25 20:23 | 41.68928 | 27.31314 | 21922 ft | 380 kts | 130° |
| 2026-04-25 20:23 | 41.67194 | 27.33967 | 21204 ft | 377 kts | 130° |
| 2026-04-25 20:24 | 41.65477 | 27.36592 | 20497 ft | 373 kts | 130° |
| 2026-04-25 20:24 | 41.63775 | 27.39193 | 19788 ft | 369 kts | 131° |
| 2026-04-25 20:24 | 41.62092 | 27.41764 | 19098 ft | 365 kts | 131° |
| 2026-04-25 20:24 | 41.60463 | 27.44249 | 18620 ft | 356 kts | 131° |
| 2026-04-25 20:25 | 41.58858 | 27.46696 | 18234 ft | 344 kts | 131° |
| 2026-04-25 20:25 | 41.57300 | 27.49069 | 17882 ft | 337 kts | 131° |
| 2026-04-25 20:25 | 41.55756 | 27.51419 | 17526 ft | 335 kts | 131° |
| 2026-04-25 20:25 | 41.54222 | 27.53752 | 17179 ft | 333 kts | 131° |
| 2026-04-25 20:26 | 41.52703 | 27.56060 | 16841 ft | 330 kts | 131° |
| 2026-04-25 20:26 | 41.51191 | 27.58356 | 16501 ft | 328 kts | 131° |
| 2026-04-25 20:26 | 41.49687 | 27.60637 | 16166 ft | 325 kts | 131° |
| 2026-04-25 20:26 | 41.48200 | 27.62893 | 15840 ft | 323 kts | 131° |
| 2026-04-25 20:27 | 41.46723 | 27.65130 | 15505 ft | 320 kts | 131° |
| 2026-04-25 20:27 | 41.45256 | 27.67351 | 15172 ft | 318 kts | 131° |
| 2026-04-25 20:27 | 41.43805 | 27.69546 | 14849 ft | 315 kts | 132° |
| 2026-04-25 20:27 | 41.42360 | 27.71730 | 14529 ft | 313 kts | 132° |
| 2026-04-25 20:28 | 41.40925 | 27.73898 | 14208 ft | 311 kts | 132° |
| 2026-04-25 20:28 | 41.39499 | 27.76052 | 13890 ft | 308 kts | 132° |
| 2026-04-25 20:28 | 41.38087 | 27.78181 | 13580 ft | 306 kts | 132° |
| 2026-04-25 20:28 | 41.36697 | 27.80276 | 13259 ft | 304 kts | 132° |
| 2026-04-25 20:29 | 41.35301 | 27.82379 | 12953 ft | 302 kts | 132° |
| 2026-04-25 20:29 | 41.33915 | 27.84465 | 12634 ft | 300 kts | 132° |
| 2026-04-25 20:29 | 41.32541 | 27.86531 | 12318 ft | 298 kts | 133° |
| 2026-04-25 20:29 | 41.31172 | 27.88590 | 11978 ft | 296 kts | 133° |
| 2026-04-25 20:30 | 41.29810 | 27.90636 | 11679 ft | 294 kts | 133° |
| 2026-04-25 20:30 | 41.28457 | 27.92667 | 11375 ft | 292 kts | 133° |
| 2026-04-25 20:30 | 41.27113 | 27.94684 | 11072 ft | 290 kts | 132° |
| 2026-04-25 20:30 | 41.26227 | 27.96012 | 10868 ft | 289 kts | 132° |
| 2026-04-25 20:31 | 41.24882 | 27.98027 | 10559 ft | 287 kts | 132° |
| 2026-04-25 20:31 | 41.23559 | 28.00008 | 10269 ft | 292 kts | 132° |
| 2026-04-25 20:31 | 41.22214 | 28.02020 | 10082 ft | 290 kts | 132° |
| 2026-04-25 20:31 | 41.20887 | 28.04005 | 9923 ft | 286 kts | 132° |
| 2026-04-25 20:32 | 41.19564 | 28.05983 | 9650 ft | 286 kts | 132° |
| 2026-04-25 20:32 | 41.18244 | 28.07954 | 9333 ft | 285 kts | 132° |
| 2026-04-25 20:32 | 41.16931 | 28.09913 | 9025 ft | 283 kts | 132° |
| 2026-04-25 20:32 | 41.15627 | 28.11858 | 8716 ft | 281 kts | 132° |
| 2026-04-25 20:33 | 41.14331 | 28.13789 | 8416 ft | 279 kts | 132° |
| 2026-04-25 20:33 | 41.13044 | 28.15707 | 8120 ft | 277 kts | 132° |
| 2026-04-25 20:33 | 41.11768 | 28.17605 | 7824 ft | 275 kts | 132° |
| 2026-04-25 20:33 | 41.10925 | 28.18861 | 7634 ft | 274 kts | 132° |
| 2026-04-25 20:34 | 41.09237 | 28.21371 | 7240 ft | 272 kts | 132° |
| 2026-04-25 20:34 | 41.07981 | 28.23237 | 6951 ft | 269 kts | 131° |
| 2026-04-25 20:34 | 41.06940 | 28.25233 | 6651 ft | 267 kts | 112° |
| 2026-04-25 20:34 | 41.06439 | 28.27611 | 6401 ft | 262 kts | 101° |
| 2026-04-25 20:35 | 41.06090 | 28.29936 | 6320 ft | 254 kts | 101° |
| 2026-04-25 20:35 | 41.05750 | 28.32238 | 6170 ft | 261 kts | 101° |
| 2026-04-25 20:35 | 41.05397 | 28.34623 | 5932 ft | 265 kts | 101° |
| 2026-04-25 20:35 | 41.05042 | 28.37016 | 5703 ft | 265 kts | 101° |
| 2026-04-25 20:36 | 41.04687 | 28.39406 | 5504 ft | 264 kts | 101° |
| 2026-04-25 20:36 | 41.04332 | 28.41788 | 5303 ft | 263 kts | 101° |
| 2026-04-25 20:36 | 41.03980 | 28.44160 | 5106 ft | 262 kts | 101° |
| 2026-04-25 20:36 | 41.03630 | 28.46523 | 4900 ft | 261 kts | 101° |
| 2026-04-25 20:37 | 41.03285 | 28.48859 | 4704 ft | 257 kts | 101° |
| 2026-04-25 20:37 | 41.02945 | 28.51159 | 4501 ft | 252 kts | 101° |
| 2026-04-25 20:37 | 41.02609 | 28.53426 | 4297 ft | 248 kts | 101° |
| 2026-04-25 20:37 | 41.02283 | 28.55629 | 4152 ft | 239 kts | 101° |
| 2026-04-25 20:38 | 41.01968 | 28.57760 | 4018 ft | 234 kts | 101° |
| 2026-04-25 20:38 | 41.01656 | 28.59876 | 3998 ft | 231 kts | 101° |
| 2026-04-25 20:38 | 41.01360 | 28.61871 | 3975 ft | 217 kts | 101° |
| 2026-04-25 20:38 | 41.01076 | 28.63804 | 3986 ft | 212 kts | 99° |
| 2026-04-25 20:39 | 41.01222 | 28.65714 | 3909 ft | 210 kts | 66° |
| 2026-04-25 20:39 | 41.02119 | 28.67201 | 3719 ft | 207 kts | 40° |
| 2026-04-25 20:39 | 41.03261 | 28.68324 | 3515 ft | 202 kts | 36° |
| 2026-04-25 20:39 | 41.03993 | 28.69010 | 3388 ft | 188 kts | 36° |
| 2026-04-25 20:40 | 41.05371 | 28.70291 | 3088 ft | 177 kts | 36° |
| 2026-04-25 20:40 | 41.06383 | 28.71222 | 2974 ft | 177 kts | 36° |
| 2026-04-25 20:40 | 41.07395 | 28.72157 | 2958 ft | 177 kts | 36° |
| 2026-04-25 20:40 | 41.08437 | 28.72930 | 3025 ft | 169 kts | 20° |
| 2026-04-25 20:41 | 41.09588 | 28.73202 | 3041 ft | 169 kts | 4° |
| 2026-04-25 20:41 | 41.10763 | 28.73167 | 3018 ft | 169 kts | 358° |
| 2026-04-25 20:41 | 41.11920 | 28.73111 | 2981 ft | 160 kts | 360° |
| 2026-04-25 20:41 | 41.13018 | 28.73080 | 2850 ft | 156 kts | 0° |
| 2026-04-25 20:42 | 41.14092 | 28.73056 | 2670 ft | 154 kts | 0° |
| 2026-04-25 20:42 | 41.15163 | 28.73032 | 2470 ft | 153 kts | 360° |
| 2026-04-25 20:42 | 41.16233 | 28.73008 | 2280 ft | 154 kts | 359° |
| 2026-04-25 20:42 | 41.17306 | 28.72983 | 2075 ft | 154 kts | 359° |
| 2026-04-25 20:43 | 41.18380 | 28.72958 | 1882 ft | 155 kts | 359° |
| 2026-04-25 20:43 | 41.19454 | 28.72932 | 1681 ft | 154 kts | 359° |
| 2026-04-25 20:43 | 41.20528 | 28.72907 | 1466 ft | 155 kts | 359° |
| 2026-04-25 20:43 | 41.21607 | 28.72883 | 1269 ft | 155 kts | 358° |
| 2026-04-25 20:44 | 41.22685 | 28.72860 | 1044 ft | 157 kts | 358° |
| 2026-04-25 20:44 | 41.23752 | 28.72820 | 822 ft | 150 kts | 358° |
| 2026-04-25 20:44 | 41.24772 | 28.72805 | 625 ft | 149 kts | 359° |
| 2026-04-25 20:44 | 41.25813 | 28.72789 | 455 ft | 145 kts | 359° |
| 2026-04-25 20:45 | 41.26803 | 28.72767 | 359 ft | 141 kts | 357° |
| 2026-04-25 20:45 | 41.27679 | 28.72740 | 333 ft | 98 kts | 360° |
| 2026-04-25 20:45 | 41.28154 | 28.72733 | 333 ft | 47 kts | 359° |
| 2026-04-25 20:45 | 41.28322 | 28.72777 | 336 ft | 18 kts | 28° |
| 2026-04-25 20:46 | 41.28428 | 28.72851 | 336 ft | 13 kts | 28° |
| 2026-04-25 20:46 | 41.28460 | 28.72879 | 335 ft | 0 kts | 42° |
| 2026-04-25 20:47 | 41.28462 | 28.72881 | 336 ft | 2 kts | 44° |
| 2026-04-25 20:47 | 41.28471 | 28.72908 | 335 ft | 5 kts | 89° |
| 2026-04-25 20:47 | 41.28457 | 28.72940 | 332 ft | 6 kts | 134° |
| 2026-04-25 20:48 | 41.28385 | 28.72953 | 335 ft | 15 kts | 187° |
| 2026-04-25 20:48 | 41.28277 | 28.72957 | 334 ft | 16 kts | 178° |
| 2026-04-25 20:48 | 41.28162 | 28.72960 | 334 ft | 16 kts | 179° |
| 2026-04-25 20:48 | 41.28045 | 28.72961 | 334 ft | 18 kts | 179° |
| 2026-04-25 20:49 | 41.27924 | 28.72963 | 335 ft | 17 kts | 179° |
| 2026-04-25 20:49 | 41.27803 | 28.72967 | 333 ft | 16 kts | 179° |
| 2026-04-25 20:49 | 41.27682 | 28.72970 | 335 ft | 19 kts | 178° |
| 2026-04-25 20:49 | 41.27550 | 28.72974 | 333 ft | 20 kts | 179° |
| 2026-04-25 20:50 | 41.27426 | 28.72976 | 332 ft | 19 kts | 179° |
| 2026-04-25 20:50 | 41.27292 | 28.72979 | 335 ft | 19 kts | 179° |
| 2026-04-25 20:50 | 41.27159 | 28.72982 | 333 ft | 16 kts | 179° |
| 2026-04-25 20:50 | 41.27048 | 28.72985 | 336 ft | 13 kts | 179° |
| 2026-04-25 20:51 | 41.26957 | 28.72987 | 333 ft | 12 kts | 179° |
| 2026-04-25 20:51 | 41.26886 | 28.73003 | 334 ft | 11 kts | 144° |
| 2026-04-25 20:51 | 41.26866 | 28.73097 | 332 ft | 11 kts | 88° |
| 2026-04-25 20:51 | 41.26867 | 28.73214 | 334 ft | 13 kts | 90° |
| 2026-04-25 20:52 | 41.26868 | 28.73335 | 336 ft | 14 kts | 88° |
| 2026-04-25 20:52 | 41.26870 | 28.73425 | 332 ft | 14 kts | 88° |
| 2026-04-25 20:52 | 41.26872 | 28.73567 | 336 ft | 10 kts | 89° |
| 2026-04-25 20:52 | 41.26836 | 28.73623 | 334 ft | 9 kts | 184° |
| 2026-04-25 20:53 | 41.26800 | 28.73615 | 336 ft | 3 kts | 181° |
| 2026-04-25 20:53 | 41.26781 | 28.73615 | 336 ft | 2 kts | 180° |
| 2026-04-25 20:53 | 41.26779 | 28.73615 | 336 ft | 0 kts | 180° |